createdAt,value
2024-01-15T00:02:09.987Z,28.87
2024-01-15T00:04:41.395Z,25.40
2024-01-15T00:07:09.329Z,29.90
2024-01-15T00:09:37.006Z,29.87
2024-01-15T00:12:04.757Z,27.33
2024-01-15T00:14:32.375Z,33.13
2024-01-15T00:16:59.756Z,33.93
2024-01-15T00:19:28.487Z,29.07
2024-01-15T00:21:56.406Z,30.60
2024-01-15T00:24:24.184Z,30.67
2024-01-15T00:26:51.813Z,34.70
2024-01-15T00:29:19.633Z,29.97
2024-01-15T00:31:47.158Z,34.77
2024-01-15T00:34:14.745Z,30.80
2024-01-15T00:36:42.637Z,30.93
2024-01-15T00:39:12.062Z,30.87
2024-01-15T00:41:39.678Z,33.03
2024-01-15T00:44:08.296Z,39.00
2024-01-15T00:46:45.399Z,37.47
2024-01-15T00:49:13.893Z,32.03
2024-01-15T00:51:41.664Z,35.63
2024-01-15T00:54:09.601Z,30.53
2024-01-15T00:56:37.892Z,28.33
2024-01-15T00:59:05.476Z,33.50
2024-01-15T01:01:33.230Z,29.57
2024-01-15T01:04:00.871Z,31.67
2024-01-15T01:06:29.687Z,31.87
2024-01-15T01:08:58.024Z,35.07
2024-01-15T01:11:25.541Z,30.03
2024-01-15T01:13:53.259Z,36.83
2024-01-15T01:16:20.659Z,35.73
2024-01-15T01:18:48.310Z,37.60
2024-01-15T01:21:16.114Z,28.65
2024-01-15T01:23:43.550Z,37.87
2024-01-15T01:26:11.257Z,33.83
2024-01-15T01:28:39.380Z,36.80
2024-01-15T01:31:06.932Z,35.63
2024-01-15T01:33:34.480Z,29.37
2024-01-15T01:36:02.100Z,33.07
2024-01-15T01:38:29.569Z,34.23
2024-01-15T01:40:57.072Z,30.25
2024-01-15T01:43:24.610Z,28.88
2024-01-15T01:45:52.238Z,37.27
2024-01-15T01:48:23.003Z,35.13
2024-01-15T01:50:51.027Z,31.03
2024-01-15T01:53:18.603Z,33.53
2024-01-15T01:55:47.126Z,35.43
2024-01-15T01:58:16.433Z,36.53
2024-01-15T02:00:44.570Z,31.87
2024-01-15T02:03:12.208Z,35.27
2024-01-15T02:05:41.056Z,37.00
2024-01-15T02:08:09.460Z,34.27
2024-01-15T02:10:37.046Z,39.22
2024-01-15T02:13:04.869Z,35.22
2024-01-15T02:15:33.102Z,33.07
2024-01-15T02:18:01.714Z,52.73
2024-01-15T02:20:29.275Z,38.13
2024-01-15T02:23:16.631Z,34.15
2024-01-15T02:25:48.227Z,39.95
2024-01-15T02:28:17.198Z,32.05
2024-01-15T02:30:44.935Z,37.90
2024-01-15T02:33:12.931Z,36.40
2024-01-15T02:35:41.008Z,36.27
2024-01-15T02:38:08.790Z,33.30
2024-01-15T02:40:36.548Z,29.75
2024-01-15T02:43:04.129Z,33.15
2024-01-15T02:45:31.782Z,36.35
2024-01-15T02:47:59.315Z,36.85
2024-01-15T02:50:26.899Z,34.88
2024-01-15T02:52:54.409Z,32.30
2024-01-15T02:55:21.892Z,31.05
2024-01-15T02:57:49.460Z,41.90
2024-01-15T03:00:17.130Z,40.20
2024-01-15T03:02:48.463Z,40.17
2024-01-15T03:05:16.606Z,30.83
2024-01-15T03:07:44.745Z,42.88
2024-01-15T03:10:12.382Z,37.58
2024-01-15T03:12:39.958Z,41.65
2024-01-15T03:15:07.655Z,35.20
2024-01-15T03:17:35.170Z,36.58
2024-01-15T03:20:03.031Z,41.53
2024-01-15T03:22:31.137Z,37.70
2024-01-15T03:24:59.103Z,39.88
2024-01-15T03:27:27.416Z,41.72
2024-01-15T03:29:55.007Z,37.95
2024-01-15T03:32:22.484Z,34.35
2024-01-15T03:34:50.220Z,42.47
2024-01-15T03:37:17.698Z,41.30
2024-01-15T03:39:45.535Z,43.50
2024-01-15T03:42:13.479Z,35.13
2024-01-15T03:44:41.215Z,37.28
2024-01-15T03:47:08.649Z,41.33
2024-01-15T03:49:36.405Z,38.90
2024-01-15T03:52:04.168Z,38.60
2024-01-15T03:54:31.578Z,39.78
2024-01-15T03:56:59.126Z,41.67
2024-01-15T03:59:26.841Z,43.97
2024-01-15T04:01:54.286Z,43.38
2024-01-15T04:04:21.882Z,38.50
2024-01-15T04:06:49.707Z,45.85
2024-01-15T04:09:17.617Z,37.28
2024-01-15T04:11:45.260Z,50.33
2024-01-15T04:14:12.763Z,44.00
2024-01-15T04:16:40.372Z,39.65
2024-01-15T04:19:08.464Z,42.80
2024-01-15T04:21:36.036Z,42.00
2024-01-15T04:24:03.559Z,41.35
2024-01-15T04:26:31.028Z,44.47
2024-01-15T04:29:00.154Z,42.75
2024-01-15T04:31:30.692Z,47.75
2024-01-15T04:33:58.401Z,44.78
2024-01-15T04:36:26.290Z,43.55
2024-01-15T04:38:53.787Z,44.15
2024-01-15T04:41:21.491Z,49.75
2024-01-15T04:43:49.067Z,47.60
2024-01-15T04:46:16.636Z,49.75
2024-01-15T04:48:44.332Z,43.30
2024-01-15T04:51:11.913Z,45.45
2024-01-15T04:53:39.529Z,44.33
2024-01-15T04:56:07.269Z,43.10
2024-01-15T04:58:34.926Z,42.05
2024-01-15T05:01:02.627Z,41.97
2024-01-15T05:03:31.083Z,43.35
2024-01-15T05:05:58.840Z,40.35
2024-01-15T05:08:26.360Z,49.92
2024-01-15T05:10:54.542Z,54.72
2024-01-15T05:13:22.052Z,54.92
2024-01-15T05:15:49.492Z,50.92
2024-01-15T05:18:17.443Z,54.47
2024-01-15T05:20:45.276Z,50.78
2024-01-15T05:23:12.773Z,48.83
2024-01-15T05:25:40.219Z,51.42
2024-01-15T05:28:08.086Z,45.80
2024-01-15T05:30:35.557Z,48.95
2024-01-15T05:33:04.184Z,48.03
2024-01-15T05:35:31.770Z,46.42
2024-01-15T05:37:59.358Z,52.15
2024-01-15T05:40:26.708Z,47.30
2024-01-15T05:42:54.216Z,53.72
2024-01-15T05:45:21.748Z,52.28
2024-01-15T05:47:49.659Z,48.63
2024-01-15T05:50:17.435Z,49.00
2024-01-15T05:52:44.969Z,51.63
2024-01-15T05:55:12.334Z,48.78
2024-01-15T05:57:40.624Z,51.75
2024-01-15T06:00:10.266Z,47.88
2024-01-15T06:02:39.586Z,50.55
2024-01-15T06:05:07.523Z,59.65
2024-01-15T06:07:36.126Z,51.90
2024-01-15T06:10:04.299Z,51.83
2024-01-15T06:12:33.622Z,50.05
2024-01-15T06:15:01.172Z,51.80
2024-01-15T06:17:29.036Z,55.70
2024-01-15T06:19:56.607Z,48.33
2024-01-15T06:22:24.010Z,46.80
2024-01-15T06:24:51.719Z,48.40
2024-01-15T06:27:19.230Z,44.00
2024-01-15T06:29:51.081Z,42.25
2024-01-15T06:32:19.071Z,46.90
2024-01-15T06:34:47.634Z,45.22
2024-01-15T06:37:15.149Z,41.88
2024-01-15T06:39:43.038Z,39.85
2024-01-15T06:42:10.575Z,45.25
2024-01-15T06:44:38.216Z,44.88
2024-01-15T06:47:07.122Z,44.55
2024-01-15T06:49:34.707Z,46.88
2024-01-15T06:52:02.408Z,42.83
2024-01-15T06:54:30.091Z,43.05
2024-01-15T06:56:57.668Z,44.42
2024-01-15T06:59:25.912Z,39.42
2024-01-15T07:01:53.480Z,43.83
2024-01-15T07:04:21.290Z,41.10
2024-01-15T07:06:49.690Z,40.45
2024-01-15T07:09:18.031Z,45.65
2024-01-15T07:11:46.709Z,40.67
2024-01-15T07:14:14.333Z,44.17
2024-01-15T07:16:43.173Z,39.67
2024-01-15T07:19:12.545Z,41.22
2024-01-15T07:21:41.409Z,46.17
2024-01-15T07:24:10.433Z,40.88
2024-01-15T07:26:38.014Z,42.33
2024-01-15T07:29:05.750Z,40.35
2024-01-15T07:31:34.196Z,40.97
2024-01-15T07:34:02.806Z,39.70
2024-01-15T07:36:30.502Z,37.40
2024-01-15T07:38:58.026Z,35.13
2024-01-15T07:41:25.729Z,38.13
2024-01-15T07:43:53.684Z,40.38
2024-01-15T07:46:21.635Z,41.53
2024-01-15T07:48:49.393Z,37.83
2024-01-15T07:51:17.522Z,43.20
2024-01-15T07:53:45.039Z,35.95
2024-01-15T07:56:12.542Z,36.58
2024-01-15T07:58:40.206Z,40.08
2024-01-15T08:01:08.169Z,41.53
2024-01-15T08:03:35.837Z,34.40
2024-01-15T08:06:03.374Z,37.97
2024-01-15T08:08:30.836Z,38.28
2024-01-15T08:10:58.725Z,38.45
2024-01-15T08:13:27.899Z,40.05
2024-01-15T08:15:55.357Z,42.60
2024-01-15T08:18:23.160Z,40.58
2024-01-15T08:20:52.789Z,38.53
2024-01-15T08:23:21.233Z,37.63
2024-01-15T08:25:49.080Z,43.38
2024-01-15T08:28:16.653Z,46.13
2024-01-15T08:30:44.263Z,39.85
2024-01-15T08:33:21.282Z,39.08
2024-01-15T08:35:51.120Z,36.15
2024-01-15T08:38:20.677Z,38.88
2024-01-15T08:40:48.533Z,38.72
2024-01-15T08:43:18.554Z,54.60
2024-01-15T08:45:46.622Z,44.83
2024-01-15T08:48:14.215Z,41.47
2024-01-15T08:50:41.782Z,39.05
2024-01-15T08:53:09.376Z,40.40
2024-01-15T08:55:36.961Z,39.25
2024-01-15T08:58:05.057Z,40.05
2024-01-15T09:00:32.711Z,36.55
2024-01-15T09:03:00.305Z,39.97
2024-01-15T09:05:27.998Z,36.30
2024-01-15T09:07:55.790Z,40.35
2024-01-15T09:10:23.462Z,43.08
2024-01-15T09:12:51.283Z,41.17
2024-01-15T09:15:19.383Z,32.75
2024-01-15T09:17:47.484Z,39.72
2024-01-15T09:20:15.211Z,37.42
2024-01-15T09:22:43.877Z,40.65
2024-01-15T09:25:11.665Z,38.85
2024-01-15T09:27:39.642Z,32.85
2024-01-15T09:30:07.778Z,36.22
2024-01-15T09:32:35.693Z,34.92
2024-01-15T09:35:03.451Z,34.28
2024-01-15T09:37:42.092Z,33.60
2024-01-15T09:40:18.518Z,37.25
2024-01-15T09:42:47.695Z,33.88
2024-01-15T09:45:15.644Z,32.83
2024-01-15T09:47:46.085Z,38.33
2024-01-15T09:50:16.332Z,35.03
2024-01-15T09:52:45.473Z,35.50
2024-01-15T09:55:13.396Z,34.13
2024-01-15T09:57:41.384Z,28.42
2024-01-15T10:00:12.477Z,33.55
2024-01-15T10:02:40.254Z,34.42
2024-01-15T10:05:07.906Z,33.05
2024-01-15T10:07:41.153Z,34.78
2024-01-15T10:12:40.435Z,34.45
2024-01-15T10:15:10.954Z,31.92
2024-01-15T10:17:39.940Z,34.47
2024-01-15T10:20:11.520Z,35.45
2024-01-15T10:22:43.293Z,32.33
2024-01-15T10:25:14.663Z,34.58
2024-01-15T10:27:43.151Z,35.22
2024-01-15T10:30:13.623Z,36.00
2024-01-15T10:32:42.530Z,30.95
2024-01-15T10:35:10.123Z,35.35
2024-01-15T10:37:37.765Z,30.02
2024-01-15T10:40:08.343Z,40.55
2024-01-15T10:42:36.027Z,34.35
2024-01-15T10:45:03.842Z,31.80
2024-01-15T10:47:32.131Z,34.00
2024-01-15T10:49:59.971Z,32.15
2024-01-15T10:52:28.498Z,34.85
2024-01-15T10:54:56.383Z,41.53
2024-01-15T10:57:24.930Z,35.95
2024-01-15T10:59:52.706Z,29.77
2024-01-15T11:02:20.316Z,29.75
2024-01-15T11:04:48.091Z,31.38
2024-01-15T11:07:15.959Z,28.92
2024-01-15T11:09:43.644Z,30.55
2024-01-15T11:12:12.291Z,32.22
2024-01-15T11:14:45.446Z,28.35
2024-01-15T11:17:14.458Z,32.42
2024-01-15T11:19:52.044Z,30.98
2024-01-15T11:22:34.806Z,29.55
2024-01-15T11:25:14.619Z,29.10
2024-01-15T11:27:45.449Z,28.27
2024-01-15T11:30:13.936Z,33.70
2024-01-15T11:32:44.888Z,27.48
2024-01-15T11:35:13.002Z,32.33
2024-01-15T11:37:53.449Z,29.55
2024-01-15T11:40:38.995Z,28.73
2024-01-15T11:43:07.830Z,33.65
2024-01-15T11:45:35.534Z,28.15
2024-01-15T11:48:17.615Z,29.98
2024-01-15T11:50:47.353Z,31.25
2024-01-15T11:53:35.585Z,30.05
2024-01-15T11:56:04.280Z,27.48
2024-01-15T11:58:31.955Z,31.10
2024-01-15T12:00:59.724Z,30.42
2024-01-15T12:03:27.650Z,29.80
2024-01-15T12:05:55.677Z,32.40
2024-01-15T12:08:27.942Z,27.67
2024-01-15T12:10:55.478Z,24.83
2024-01-15T12:13:22.997Z,34.83
2024-01-15T12:15:50.648Z,28.45
2024-01-15T12:18:19.779Z,25.73
2024-01-15T12:20:51.007Z,30.30
2024-01-15T12:23:19.738Z,28.63
2024-01-15T12:25:48.441Z,29.50
2024-01-15T12:28:16.106Z,32.78
2024-01-15T12:30:44.254Z,28.88
2024-01-15T12:33:11.917Z,32.53
2024-01-15T12:35:39.940Z,31.48
2024-01-15T12:38:07.607Z,33.08
2024-01-15T12:40:36.958Z,27.92
2024-01-15T12:43:06.861Z,27.15
2024-01-15T12:45:36.954Z,31.90
2024-01-15T12:48:05.654Z,32.83
2024-01-15T12:50:34.865Z,32.22
2024-01-15T12:53:02.862Z,32.50
2024-01-15T12:55:30.348Z,30.73
2024-01-15T12:57:57.960Z,30.70
2024-01-15T13:00:27.513Z,29.58
2024-01-15T13:02:56.307Z,34.15
2024-01-15T13:05:24.796Z,32.13
2024-01-15T13:07:53.416Z,33.95
2024-01-15T13:10:26.183Z,36.88
2024-01-15T13:12:54.625Z,36.53
2024-01-15T13:15:22.453Z,35.10
2024-01-15T13:17:50.694Z,34.30
2024-01-15T13:20:18.335Z,28.83
2024-01-15T13:22:46.932Z,34.33
2024-01-15T13:25:14.508Z,29.08
2024-01-15T13:27:43.487Z,37.67
2024-01-15T13:30:12.009Z,34.03
2024-01-15T13:32:41.033Z,32.05
2024-01-15T13:35:14.833Z,34.50
2024-01-15T13:37:44.876Z,40.00
2024-01-15T13:40:18.311Z,35.47
2024-01-15T13:42:47.180Z,36.03
2024-01-15T13:45:16.202Z,36.85
2024-01-15T13:47:45.167Z,38.60
2024-01-15T13:50:13.272Z,37.10
2024-01-15T13:52:43.162Z,32.72
2024-01-15T13:55:14.316Z,37.90
2024-01-15T13:57:41.983Z,34.65
2024-01-15T14:00:12.918Z,36.75
2024-01-15T14:02:43.115Z,38.30
2024-01-15T14:05:14.244Z,39.00
2024-01-15T14:07:42.359Z,31.35
2024-01-15T14:10:10.917Z,37.97
2024-01-15T14:12:38.797Z,38.50
2024-01-15T14:17:39.210Z,38.45
2024-01-15T14:20:10.677Z,38.58
2024-01-15T14:22:39.508Z,43.03
2024-01-15T14:25:07.733Z,41.45
2024-01-15T14:27:35.793Z,43.65
2024-01-15T14:30:04.504Z,39.15
2024-01-15T14:32:33.173Z,42.88
2024-01-15T14:35:01.615Z,40.53
2024-01-15T14:37:30.498Z,40.85
2024-01-15T14:40:26.247Z,41.38
2024-01-15T14:43:07.099Z,46.30
2024-01-15T14:45:35.097Z,41.55
2024-01-15T14:48:03.182Z,45.47
2024-01-15T14:50:31.901Z,47.90
2024-01-15T14:52:59.728Z,43.33
2024-01-15T14:55:27.972Z,46.97
2024-01-15T14:57:56.081Z,46.35
2024-01-15T15:00:24.826Z,41.53
2024-01-15T15:02:52.555Z,52.22
2024-01-15T15:05:20.222Z,47.25
2024-01-15T15:07:49.704Z,44.30
2024-01-15T15:10:18.366Z,48.85
2024-01-15T15:12:46.205Z,44.30
2024-01-15T15:15:18.611Z,48.05
2024-01-15T15:17:48.833Z,46.92
2024-01-15T15:20:17.403Z,47.20
2024-01-15T15:22:45.833Z,42.95
2024-01-15T15:25:15.018Z,44.78
2024-01-15T15:27:42.857Z,42.80
2024-01-15T15:30:16.974Z,39.63
2024-01-15T15:32:44.578Z,33.90
2024-01-15T15:35:12.416Z,36.05
2024-01-15T15:37:41.760Z,35.28
2024-01-15T15:40:16.576Z,43.55
2024-01-15T15:42:45.004Z,40.58
2024-01-15T15:45:13.981Z,37.80
2024-01-15T15:47:44.108Z,36.38
2024-01-15T15:50:11.898Z,39.50
2024-01-15T15:52:40.639Z,37.58
2024-01-15T15:55:09.362Z,41.15
2024-01-15T15:57:37.544Z,43.38
2024-01-15T16:00:07.853Z,39.15
2024-01-15T16:02:39.710Z,37.10
2024-01-15T16:05:11.298Z,34.67
2024-01-15T16:07:40.880Z,38.90
2024-01-15T16:10:11.865Z,43.85
2024-01-15T16:12:44.118Z,35.00
2024-01-15T16:15:24.254Z,78.47
2024-01-15T16:23:17.984Z,36.35
2024-01-15T16:23:32.438Z,40.42
2024-01-15T16:24:06.759Z,37.83
2024-01-15T16:26:27.687Z,38.60
2024-01-15T16:28:58.856Z,41.63
2024-01-15T16:31:31.985Z,40.83
2024-01-15T16:34:04.718Z,38.97
2024-01-15T16:36:37.217Z,39.40
2024-01-15T16:39:09.251Z,36.10
2024-01-15T16:41:38.663Z,44.15
2024-01-15T16:44:06.567Z,42.60
2024-01-15T16:46:34.142Z,41.78
2024-01-15T16:49:03.616Z,44.83
2024-01-15T16:51:34.584Z,38.58
2024-01-15T16:54:02.208Z,45.40
2024-01-15T16:56:30.308Z,43.65
2024-01-15T16:58:58.130Z,44.38
2024-01-15T17:01:26.073Z,45.97
2024-01-15T17:03:56.517Z,51.00
2024-01-15T17:06:26.777Z,46.38
2024-01-15T17:08:54.407Z,47.40
2024-01-15T17:11:23.377Z,50.50
2024-01-15T17:13:54.124Z,48.70
2024-01-15T17:16:24.372Z,49.22
2024-01-15T17:18:55.273Z,48.42
2024-01-15T17:21:25.012Z,47.10
2024-01-15T17:23:53.249Z,47.08
2024-01-15T17:26:24.588Z,53.10
2024-01-15T17:28:53.125Z,51.95
2024-01-15T17:31:22.184Z,50.58
2024-01-15T17:33:57.728Z,51.00
2024-01-15T17:36:32.662Z,52.00
2024-01-15T17:39:06.816Z,48.55
2024-01-15T17:41:38.183Z,53.15
2024-01-15T17:44:07.102Z,45.38
2024-01-15T17:46:36.104Z,57.17
2024-01-15T17:49:06.248Z,52.72
2024-01-15T17:51:46.000Z,50.25
2024-01-15T17:54:13.622Z,52.58
2024-01-15T17:56:41.442Z,53.53
2024-01-15T17:59:18.248Z,56.22
2024-01-15T18:01:47.816Z,52.17
2024-01-15T18:04:16.519Z,53.20
2024-01-15T18:06:44.222Z,58.40
2024-01-15T18:09:15.378Z,57.50
2024-01-15T18:11:42.997Z,55.70
2024-01-15T18:14:10.946Z,57.50
2024-01-15T18:16:50.329Z,51.78
2024-01-15T18:20:15.485Z,50.70
2024-01-15T18:22:50.768Z,56.72
2024-01-15T18:25:20.271Z,60.72
2024-01-15T18:27:52.026Z,60.28
2024-01-15T18:30:19.981Z,58.63
2024-01-15T18:32:47.817Z,58.75
2024-01-15T18:35:15.551Z,61.42
2024-01-15T18:37:45.458Z,59.80
2024-01-15T18:40:14.621Z,61.53
2024-01-15T18:42:42.608Z,61.33
2024-01-15T18:45:11.032Z,59.83
2024-01-15T18:47:41.564Z,58.88
2024-01-15T18:52:44.774Z,56.47
2024-01-15T18:55:15.395Z,54.17
2024-01-15T18:58:04.743Z,57.55
2024-01-15T19:00:43.774Z,53.90
2024-01-15T19:03:13.986Z,60.05
2024-01-15T19:05:45.814Z,57.85
2024-01-15T19:08:20.195Z,54.97
2024-01-15T19:11:05.815Z,54.95
2024-01-15T19:14:01.177Z,54.22
2024-01-15T19:25:35.648Z,54.75
2024-01-15T19:28:05.023Z,63.17
2024-01-15T19:30:33.192Z,59.90
2024-01-15T19:33:04.901Z,61.28
2024-01-15T19:35:41.032Z,63.15
2024-01-15T19:38:11.342Z,58.30
2024-01-15T19:40:39.875Z,56.28
2024-01-15T19:43:11.950Z,58.58
2024-01-15T19:45:39.620Z,59.05
2024-01-15T19:48:07.839Z,63.75
2024-01-15T19:50:38.378Z,61.47
2024-01-15T19:57:12.611Z,55.05
2024-01-15T19:59:49.497Z,60.50
2024-01-15T20:02:17.748Z,57.63
2024-01-15T20:04:48.683Z,56.88
2024-01-15T20:07:26.545Z,52.45
2024-01-15T20:09:54.911Z,55.33
2024-01-15T20:12:22.816Z,58.88
2024-01-15T20:14:51.097Z,57.08
2024-01-15T20:17:19.701Z,60.30
2024-01-15T20:19:50.544Z,62.63
2024-01-15T20:22:19.334Z,61.28
2024-01-15T20:24:48.406Z,55.22
2024-01-15T20:27:17.619Z,66.25
2024-01-15T20:29:51.888Z,62.88
2024-01-15T20:32:22.876Z,59.55
2024-01-15T20:34:55.217Z,64.57
2024-01-15T20:37:25.769Z,61.50
2024-01-15T20:39:54.858Z,61.13
2024-01-15T20:42:22.822Z,63.88
2024-01-15T20:44:52.786Z,62.05
2024-01-15T20:47:23.644Z,59.08
2024-01-15T20:49:51.646Z,59.95
2024-01-15T20:52:21.890Z,52.67
2024-01-15T20:55:12.128Z,57.78
2024-01-15T20:57:50.476Z,59.83
2024-01-15T21:00:21.548Z,56.00
2024-01-15T21:02:54.037Z,54.20
2024-01-15T21:05:21.862Z,57.88
2024-01-15T21:07:55.301Z,60.03
2024-01-15T21:10:23.796Z,58.47
2024-01-15T21:12:51.893Z,61.22
2024-01-15T21:15:19.824Z,60.55
2024-01-15T21:17:50.030Z,66.00
2024-01-15T21:20:25.432Z,59.42
2024-01-15T21:22:53.095Z,55.55
2024-01-15T21:25:21.981Z,63.63
2024-01-15T21:27:49.736Z,58.53
2024-01-15T21:30:18.354Z,57.42
2024-01-15T21:32:52.367Z,58.83
2024-01-15T21:35:20.965Z,59.53
2024-01-15T21:37:51.070Z,63.60
2024-01-15T21:40:24.246Z,59.88
2024-01-15T21:42:55.985Z,57.05
2024-01-15T21:45:28.105Z,56.90
2024-01-15T21:47:56.875Z,55.13
2024-01-15T21:50:32.456Z,55.88
2024-01-15T21:53:04.673Z,65.88
2024-01-15T21:55:32.470Z,61.88
2024-01-15T21:58:10.024Z,54.08
2024-01-15T22:00:37.870Z,53.63
2024-01-15T22:03:05.510Z,52.92
2024-01-15T22:05:37.139Z,50.88
2024-01-15T22:08:07.962Z,53.70
2024-01-15T22:10:49.839Z,55.80
2024-01-15T22:13:17.544Z,51.05
2024-01-15T22:15:45.351Z,54.47
2024-01-15T22:18:13.245Z,54.08
2024-01-15T22:20:41.505Z,56.63
2024-01-15T22:23:10.034Z,50.20
2024-01-15T22:25:40.078Z,49.08
2024-01-15T22:28:08.342Z,47.85
2024-01-15T22:30:37.594Z,53.45
2024-01-15T22:33:14.764Z,46.72
2024-01-15T22:35:53.122Z,48.60
2024-01-15T22:39:07.362Z,44.33
2024-01-15T22:41:35.314Z,51.17
2024-01-15T22:44:07.084Z,38.90
2024-01-15T22:46:34.885Z,47.00
2024-01-15T22:49:02.920Z,45.63
2024-01-15T22:51:30.956Z,47.90
2024-01-15T22:54:02.355Z,38.20
2024-01-15T22:56:33.400Z,42.53
2024-01-15T22:59:05.366Z,45.38
2024-01-15T23:01:35.714Z,39.58
2024-01-15T23:04:03.622Z,40.90
2024-01-15T23:06:36.760Z,36.20
2024-01-15T23:09:04.530Z,39.67
2024-01-15T23:11:32.415Z,37.15
2024-01-15T23:14:00.091Z,35.67
2024-01-15T23:16:27.530Z,36.63
2024-01-15T23:18:55.142Z,37.35
2024-01-15T23:21:22.773Z,37.15
2024-01-15T23:23:50.341Z,34.65
2024-01-15T23:26:19.005Z,37.08
2024-01-15T23:28:48.773Z,32.92
2024-01-15T23:31:16.218Z,33.22
2024-01-15T23:33:43.777Z,39.13
2024-01-15T23:36:11.617Z,33.53
2024-01-15T23:38:39.776Z,35.67
2024-01-15T23:41:07.949Z,36.15
2024-01-15T23:43:36.138Z,30.98
2024-01-15T23:46:10.593Z,35.03
2024-01-15T23:48:42.802Z,30.83
2024-01-15T23:51:10.678Z,30.88
2024-01-15T23:53:38.417Z,26.80
2024-01-15T23:56:06.096Z,25.65
2024-01-15T23:58:33.660Z,28.45
